Modoc, Kansas
Current Conditions -  °F | °C
As of 10:54 PM on Monday 20 Oct 2014 (Local Time) from KGCK Reporting Station
Clear Clear  
Wind Chill: 52°   Ceiling: Unl
Heat Index: 52°   Visibility: 10mi
Dew Point: 41°   Wind: 8mph
Humidity: 66%   Direction: 140°SE
Pressure: 30.11"   Gusts: NA
Location:  38.4788°N, 101.052°W
Report Text: KGCK 210354Z AUTO 14007KT 10SM CLR 11/05 A3011 RMK AO2 SLP182 T01110050
Loading
Personal Weather Stations






























Interactive Weather Map
Tropical Storm Tracking
New forecast layout! Learn more

10-Day Weather Forecast

Advertisements
Track Severe Weather on mobile